sensor_id;sensor_type;location;lat;lon;timestamp;pressure;altitude;pressure_sealevel;temperature;humidity
61908;BME280;47864;52.526;19.672;2022-11-06T00:00:25;101265.44;;;6.33;100.00
61908;BME280;47864;52.526;19.672;2022-11-06T00:02:27;101260.28;;;6.32;100.00
61908;BME280;47864;52.526;19.672;2022-11-06T00:04:30;101264.78;;;6.30;100.00
61908;BME280;47864;52.526;19.672;2022-11-06T00:06:32;101268.28;;;6.30;100.00
61908;BME280;47864;52.526;19.672;2022-11-06T00:08:36;101269.13;;;6.31;100.00
61908;BME280;47864;52.526;19.672;2022-11-06T00:10:38;101267.97;;;6.22;100.00
61908;BME280;47864;52.526;19.672;2022-11-06T00:12:40;101262.47;;;6.13;100.00
61908;BME280;47864;52.526;19.672;2022-11-06T00:14:42;101264.91;;;6.16;100.00
61908;BME280;47864;52.526;19.672;2022-11-06T00:16:45;101273.34;;;6.08;100.00
61908;BME280;47864;52.526;19.672;2022-11-06T00:18:48;101274.59;;;6.02;100.00
61908;BME280;47864;52.526;19.672;2022-11-06T00:20:50;101279.66;;;6.05;100.00
61908;BME280;47864;52.526;19.672;2022-11-06T00:22:52;101280.38;;;5.95;100.00
61908;BME280;47864;52.526;19.672;2022-11-06T00:24:54;101289.69;;;6.00;100.00
61908;BME280;47864;52.526;19.672;2022-11-06T00:26:56;101289.78;;;5.99;100.00
61908;BME280;47864;52.526;19.672;2022-11-06T00:28:58;101288.59;;;6.03;100.00
61908;BME280;47864;52.526;19.672;2022-11-06T00:31:02;101295.03;;;5.99;100.00
61908;BME280;47864;52.526;19.672;2022-11-06T00:33:04;101294.28;;;5.97;100.00
61908;BME280;47864;52.526;19.672;2022-11-06T00:35:07;101296.66;;;5.87;100.00
61908;BME280;47864;52.526;19.672;2022-11-06T00:37:08;101297.09;;;5.81;100.00
61908;BME280;47864;52.526;19.672;2022-11-06T00:39:10;101297.19;;;5.80;100.00
61908;BME280;47864;52.526;19.672;2022-11-06T00:41:14;101296.88;;;5.71;100.00
61908;BME280;47864;52.526;19.672;2022-11-06T00:43:16;101302.63;;;5.64;100.00
61908;BME280;47864;52.526;19.672;2022-11-06T00:45:18;101307.06;;;5.63;100.00
61908;BME280;47864;52.526;19.672;2022-11-06T00:47:20;101297.47;;;5.62;100.00
61908;BME280;47864;52.526;19.672;2022-11-06T00:49:22;101304.75;;;5.59;100.00
61908;BME280;47864;52.526;19.672;2022-11-06T00:51:29;101303.34;;;5.53;100.00
61908;BME280;47864;52.526;19.672;2022-11-06T00:53:32;101305.44;;;5.48;100.00
61908;BME280;47864;52.526;19.672;2022-11-06T00:55:33;101304.59;;;5.48;100.00
61908;BME280;47864;52.526;19.672;2022-11-06T00:57:35;101295.97;;;5.46;100.00
61908;BME280;47864;52.526;19.672;2022-11-06T00:59:37;101295.84;;;5.47;100.00
61908;BME280;47864;52.526;19.672;2022-11-06T01:01:41;101299.44;;;5.46;100.00
61908;BME280;47864;52.526;19.672;2022-11-06T01:03:45;101279.31;;;5.32;100.00
61908;BME280;47864;52.526;19.672;2022-11-06T01:05:47;101308.88;;;5.36;100.00
61908;BME280;47864;52.526;19.672;2022-11-06T01:07:48;101304.75;;;5.32;100.00
61908;BME280;47864;52.526;19.672;2022-11-06T01:09:50;101296.78;;;5.33;100.00
61908;BME280;47864;52.526;19.672;2022-11-06T01:11:55;101291.59;;;5.32;100.00
61908;BME280;47864;52.526;19.672;2022-11-06T01:14:16;101292.44;;;5.32;100.00
61908;BME280;47864;52.526;19.672;2022-11-06T01:16:18;101293.41;;;5.31;100.00
61908;BME280;47864;52.526;19.672;2022-11-06T01:18:20;101307.66;;;5.27;100.00
61908;BME280;47864;52.526;19.672;2022-11-06T01:20:22;101305.09;;;5.13;100.00
61908;BME280;47864;52.526;19.672;2022-11-06T01:22:24;101312.72;;;5.04;100.00
61908;BME280;47864;52.526;19.672;2022-11-06T01:24:27;101304.66;;;5.07;100.00
61908;BME280;47864;52.526;19.672;2022-11-06T01:26:29;101306.53;;;5.05;100.00
61908;BME280;47864;52.526;19.672;2022-11-06T01:28:41;101301.75;;;4.97;100.00
61908;BME280;47864;52.526;19.672;2022-11-06T01:30:43;101317.25;;;5.02;100.00
61908;BME280;47864;52.526;19.672;2022-11-06T01:32:44;101304.75;;;5.05;100.00
61908;BME280;47864;52.526;19.672;2022-11-06T01:34:48;101311.59;;;5.08;100.00
61908;BME280;47864;52.526;19.672;2022-11-06T01:36:50;101300.16;;;5.09;100.00
61908;BME280;47864;52.526;19.672;2022-11-06T01:38:56;101311.78;;;5.05;100.00
61908;BME280;47864;52.526;19.672;2022-11-06T01:40:58;101306.75;;;5.02;100.00
61908;BME280;47864;52.526;19.672;2022-11-06T01:43:03;101312.84;;;5.02;100.00
61908;BME280;47864;52.526;19.672;2022-11-06T01:45:36;101299.97;;;4.97;100.00
61908;BME280;47864;52.526;19.672;2022-11-06T01:47:39;101297.44;;;4.96;100.00
61908;BME280;47864;52.526;19.672;2022-11-06T01:49:41;101302.53;;;4.99;100.00
61908;BME280;47864;52.526;19.672;2022-11-06T01:51:51;101286.56;;;4.88;100.00
61908;BME280;47864;52.526;19.672;2022-11-06T01:53:54;101310.69;;;4.94;100.00
61908;BME280;47864;52.526;19.672;2022-11-06T01:56:00;101311.06;;;4.88;100.00
61908;BME280;47864;52.526;19.672;2022-11-06T01:58:05;101313.16;;;4.83;100.00
61908;BME280;47864;52.526;19.672;2022-11-06T02:00:08;101304.69;;;4.78;100.00
61908;BME280;47864;52.526;19.672;2022-11-06T02:02:11;101302.00;;;4.80;100.00
61908;BME280;47864;52.526;19.672;2022-11-06T02:06:15;101323.31;;;4.75;100.00
61908;BME280;47864;52.526;19.672;2022-11-06T02:08:19;101321.63;;;4.74;100.00
61908;BME280;47864;52.526;19.672;2022-11-06T02:10:22;101325.38;;;4.70;100.00
61908;BME280;47864;52.526;19.672;2022-11-06T02:15:09;101328.94;;;4.55;100.00
61908;BME280;47864;52.526;19.672;2022-11-06T02:19:55;101322.56;;;4.45;100.00
61908;BME280;47864;52.526;19.672;2022-11-06T02:31:44;101336.53;;;4.31;100.00
61908;BME280;47864;52.526;19.672;2022-11-06T02:33:51;101333.16;;;4.29;100.00
61908;BME280;47864;52.526;19.672;2022-11-06T02:36:00;101340.94;;;4.31;100.00
61908;BME280;47864;52.526;19.672;2022-11-06T02:38:30;101335.91;;;4.28;100.00
61908;BME280;47864;52.526;19.672;2022-11-06T02:40:31;101344.03;;;4.23;100.00
61908;BME280;47864;52.526;19.672;2022-11-06T02:42:37;101346.03;;;4.19;100.00
61908;BME280;47864;52.526;19.672;2022-11-06T02:44:41;101345.50;;;4.13;100.00
61908;BME280;47864;52.526;19.672;2022-11-06T02:46:56;101346.66;;;4.09;100.00
61908;BME280;47864;52.526;19.672;2022-11-06T02:49:15;101347.88;;;4.03;100.00
61908;BME280;47864;52.526;19.672;2022-11-06T02:51:23;101349.25;;;3.95;100.00
61908;BME280;47864;52.526;19.672;2022-11-06T02:53:26;101343.88;;;3.96;100.00
61908;BME280;47864;52.526;19.672;2022-11-06T02:55:32;101351.88;;;3.95;100.00
61908;BME280;47864;52.526;19.672;2022-11-06T02:57:36;101350.19;;;3.94;100.00
61908;BME280;47864;52.526;19.672;2022-11-06T02:59:53;101351.13;;;3.93;100.00
61908;BME280;47864;52.526;19.672;2022-11-06T03:02:00;101346.13;;;3.88;100.00
61908;BME280;47864;52.526;19.672;2022-11-06T03:04:09;101354.91;;;3.87;100.00
61908;BME280;47864;52.526;19.672;2022-11-06T03:06:39;101351.56;;;3.85;100.00
61908;BME280;47864;52.526;19.672;2022-11-06T03:08:54;101350.22;;;3.78;100.00
61908;BME280;47864;52.526;19.672;2022-11-06T03:18:23;101362.34;;;3.65;100.00
61908;BME280;47864;52.526;19.672;2022-11-06T03:26:50;101354.78;;;3.44;100.00
61908;BME280;47864;52.526;19.672;2022-11-06T03:28:57;101363.81;;;3.39;100.00
61908;BME280;47864;52.526;19.672;2022-11-06T03:31:03;101357.94;;;3.35;100.00
61908;BME280;47864;52.526;19.672;2022-11-06T03:33:14;101355.09;;;3.38;100.00
61908;BME280;47864;52.526;19.672;2022-11-06T03:35:24;101358.50;;;3.40;100.00
61908;BME280;47864;52.526;19.672;2022-11-06T03:37:41;101353.69;;;3.33;100.00
61908;BME280;47864;52.526;19.672;2022-11-06T03:39:49;101368.41;;;3.35;100.00
61908;BME280;47864;52.526;19.672;2022-11-06T03:42:08;101367.72;;;3.32;100.00
61908;BME280;47864;52.526;19.672;2022-11-06T03:44:17;101374.94;;;3.28;100.00
61908;BME280;47864;52.526;19.672;2022-11-06T03:46:21;101370.63;;;3.27;100.00
61908;BME280;47864;52.526;19.672;2022-11-06T03:48:36;101370.63;;;3.27;100.00
61908;BME280;47864;52.526;19.672;2022-11-06T03:57:10;101375.00;;;3.27;100.00
61908;BME280;47864;52.526;19.672;2022-11-06T03:59:15;101374.16;;;3.26;100.00
61908;BME280;47864;52.526;19.672;2022-11-06T04:01:21;101379.00;;;3.18;100.00
61908;BME280;47864;52.526;19.672;2022-11-06T04:03:26;101381.19;;;3.10;100.00
61908;BME280;47864;52.526;19.672;2022-11-06T04:05:38;101376.09;;;3.07;100.00
61908;BME280;47864;52.526;19.672;2022-11-06T04:07:44;101367.88;;;2.97;100.00
61908;BME280;47864;52.526;19.672;2022-11-06T04:09:52;101362.91;;;2.93;100.00
61908;BME280;47864;52.526;19.672;2022-11-06T04:12:00;101365.19;;;2.99;100.00
61908;BME280;47864;52.526;19.672;2022-11-06T04:14:04;101369.84;;;2.94;100.00
61908;BME280;47864;52.526;19.672;2022-11-06T04:16:08;101373.47;;;2.91;100.00
61908;BME280;47864;52.526;19.672;2022-11-06T04:18:12;101369.34;;;2.87;100.00
61908;BME280;47864;52.526;19.672;2022-11-06T04:20:18;101373.81;;;2.85;100.00
61908;BME280;47864;52.526;19.672;2022-11-06T04:22:49;101373.97;;;2.82;100.00
61908;BME280;47864;52.526;19.672;2022-11-06T04:30:06;101370.47;;;2.66;100.00
61908;BME280;47864;52.526;19.672;2022-11-06T04:32:18;101366.38;;;2.45;100.00
61908;BME280;47864;52.526;19.672;2022-11-06T04:36:56;101365.69;;;2.24;100.00
61908;BME280;47864;52.526;19.672;2022-11-06T04:39:12;101368.09;;;2.28;100.00
61908;BME280;47864;52.526;19.672;2022-11-06T04:43:49;101364.78;;;2.25;100.00
61908;BME280;47864;52.526;19.672;2022-11-06T04:45:54;101355.69;;;2.32;100.00
61908;BME280;47864;52.526;19.672;2022-11-06T04:47:59;101356.97;;;2.41;100.00
61908;BME280;47864;52.526;19.672;2022-11-06T04:50:04;101355.19;;;2.41;100.00
61908;BME280;47864;52.526;19.672;2022-11-06T04:52:20;101360.38;;;2.43;100.00
61908;BME280;47864;52.526;19.672;2022-11-06T04:54:24;101363.25;;;2.38;100.00
61908;BME280;47864;52.526;19.672;2022-11-06T04:56:33;101362.47;;;2.36;100.00
61908;BME280;47864;52.526;19.672;2022-11-06T04:58:37;101360.06;;;2.32;100.00
61908;BME280;47864;52.526;19.672;2022-11-06T05:00:41;101354.69;;;2.35;100.00
61908;BME280;47864;52.526;19.672;2022-11-06T05:02:45;101356.53;;;2.33;100.00
61908;BME280;47864;52.526;19.672;2022-11-06T05:04:47;101365.69;;;2.41;100.00
61908;BME280;47864;52.526;19.672;2022-11-06T05:06:48;101362.63;;;2.33;100.00
61908;BME280;47864;52.526;19.672;2022-11-06T05:08:50;101372.41;;;2.29;100.00
61908;BME280;47864;52.526;19.672;2022-11-06T05:10:52;101362.63;;;2.33;100.00
61908;BME280;47864;52.526;19.672;2022-11-06T05:12:54;101360.38;;;2.25;100.00
61908;BME280;47864;52.526;19.672;2022-11-06T05:14:55;101359.03;;;2.18;100.00
61908;BME280;47864;52.526;19.672;2022-11-06T05:16:58;101358.31;;;2.15;100.00
61908;BME280;47864;52.526;19.672;2022-11-06T05:19:00;101363.88;;;2.09;100.00
61908;BME280;47864;52.526;19.672;2022-11-06T05:21:02;101354.41;;;2.06;100.00
61908;BME280;47864;52.526;19.672;2022-11-06T05:23:04;101358.97;;;2.03;100.00
61908;BME280;47864;52.526;19.672;2022-11-06T05:25:06;101359.50;;;2.09;100.00
61908;BME280;47864;52.526;19.672;2022-11-06T05:27:08;101361.31;;;2.07;100.00
61908;BME280;47864;52.526;19.672;2022-11-06T05:29:11;101363.81;;;2.10;100.00
61908;BME280;47864;52.526;19.672;2022-11-06T05:31:13;101363.09;;;2.07;100.00
61908;BME280;47864;52.526;19.672;2022-11-06T05:33:15;101364.03;;;2.06;100.00
61908;BME280;47864;52.526;19.672;2022-11-06T05:35:19;101368.19;;;2.10;100.00
61908;BME280;47864;52.526;19.672;2022-11-06T05:37:21;101360.41;;;2.08;100.00
61908;BME280;47864;52.526;19.672;2022-11-06T05:39:22;101359.63;;;2.06;100.00
61908;BME280;47864;52.526;19.672;2022-11-06T05:41:24;101356.09;;;2.07;100.00
61908;BME280;47864;52.526;19.672;2022-11-06T05:43:26;101358.72;;;2.07;100.00
61908;BME280;47864;52.526;19.672;2022-11-06T05:45:28;101364.72;;;2.09;100.00
61908;BME280;47864;52.526;19.672;2022-11-06T05:47:30;101363.88;;;2.09;100.00
61908;BME280;47864;52.526;19.672;2022-11-06T05:49:32;101357.72;;;2.10;100.00
61908;BME280;47864;52.526;19.672;2022-11-06T05:51:34;101358.09;;;2.02;100.00
61908;BME280;47864;52.526;19.672;2022-11-06T05:53:36;101364.13;;;2.04;100.00
61908;BME280;47864;52.526;19.672;2022-11-06T05:55:37;101369.34;;;2.04;100.00
61908;BME280;47864;52.526;19.672;2022-11-06T05:57:39;101369.19;;;2.07;100.00
61908;BME280;47864;52.526;19.672;2022-11-06T05:59:41;101360.47;;;1.89;100.00
61908;BME280;47864;52.526;19.672;2022-11-06T06:01:43;101378.78;;;1.89;100.00
61908;BME280;47864;52.526;19.672;2022-11-06T06:03:45;101388.44;;;1.89;100.00
61908;BME280;47864;52.526;19.672;2022-11-06T06:05:47;101393.66;;;2.06;100.00
61908;BME280;47864;52.526;19.672;2022-11-06T06:07:48;101387.50;;;2.07;100.00
61908;BME280;47864;52.526;19.672;2022-11-06T06:09:50;101378.13;;;2.03;100.00
61908;BME280;47864;52.526;19.672;2022-11-06T06:11:52;101396.66;;;2.16;100.00
61908;BME280;47864;52.526;19.672;2022-11-06T06:13:54;101398.34;;;2.17;100.00
61908;BME280;47864;52.526;19.672;2022-11-06T06:16:00;101399.44;;;2.30;100.00
61908;BME280;47864;52.526;19.672;2022-11-06T06:18:02;101400.28;;;2.31;100.00
61908;BME280;47864;52.526;19.672;2022-11-06T06:20:04;101407.19;;;2.32;100.00
61908;BME280;47864;52.526;19.672;2022-11-06T06:22:05;101396.91;;;2.28;100.00
61908;BME280;47864;52.526;19.672;2022-11-06T06:24:07;101412.53;;;2.30;100.00
61908;BME280;47864;52.526;19.672;2022-11-06T06:26:09;101411.94;;;2.41;100.00
61908;BME280;47864;52.526;19.672;2022-11-06T06:28:11;101413.50;;;2.45;100.00
61908;BME280;47864;52.526;19.672;2022-11-06T06:30:13;101421.97;;;2.50;100.00
61908;BME280;47864;52.526;19.672;2022-11-06T06:32:15;101416.50;;;2.54;100.00
61908;BME280;47864;52.526;19.672;2022-11-06T06:34:17;101414.16;;;2.65;100.00
61908;BME280;47864;52.526;19.672;2022-11-06T06:36:18;101427.09;;;2.68;100.00
61908;BME280;47864;52.526;19.672;2022-11-06T06:38:21;101432.78;;;2.77;100.00
61908;BME280;47864;52.526;19.672;2022-11-06T06:40:23;101433.09;;;2.71;100.00
61908;BME280;47864;52.526;19.672;2022-11-06T06:42:27;101436.03;;;2.64;100.00
61908;BME280;47864;52.526;19.672;2022-11-06T06:44:31;101435.88;;;2.67;100.00
61908;BME280;47864;52.526;19.672;2022-11-06T06:46:33;101429.94;;;2.64;100.00
61908;BME280;47864;52.526;19.672;2022-11-06T06:48:35;101434.56;;;2.59;100.00
61908;BME280;47864;52.526;19.672;2022-11-06T06:50:37;101431.19;;;2.57;100.00
61908;BME280;47864;52.526;19.672;2022-11-06T06:52:39;101446.25;;;2.86;100.00
61908;BME280;47864;52.526;19.672;2022-11-06T06:54:40;101442.88;;;3.00;100.00
61908;BME280;47864;52.526;19.672;2022-11-06T06:56:42;101444.94;;;3.11;100.00
61908;BME280;47864;52.526;19.672;2022-11-06T06:58:44;101432.69;;;3.11;100.00
61908;BME280;47864;52.526;19.672;2022-11-06T07:00:46;101448.50;;;3.25;100.00
61908;BME280;47864;52.526;19.672;2022-11-06T07:02:48;101455.09;;;3.32;100.00
61908;BME280;47864;52.526;19.672;2022-11-06T07:04:49;101447.84;;;3.37;100.00
61908;BME280;47864;52.526;19.672;2022-11-06T07:06:54;101451.56;;;3.33;100.00
61908;BME280;47864;52.526;19.672;2022-11-06T07:08:56;101447.00;;;3.37;100.00
61908;BME280;47864;52.526;19.672;2022-11-06T07:11:04;101456.94;;;3.30;100.00
61908;BME280;47864;52.526;19.672;2022-11-06T07:13:06;101439.56;;;3.29;100.00
61908;BME280;47864;52.526;19.672;2022-11-06T07:15:08;101439.22;;;3.20;100.00
61908;BME280;47864;52.526;19.672;2022-11-06T07:17:10;101441.06;;;3.18;100.00
61908;BME280;47864;52.526;19.672;2022-11-06T07:19:12;101443.41;;;3.38;100.00
61908;BME280;47864;52.526;19.672;2022-11-06T07:21:14;101445.03;;;3.56;100.00
61908;BME280;47864;52.526;19.672;2022-11-06T07:23:15;101439.34;;;3.64;100.00
61908;BME280;47864;52.526;19.672;2022-11-06T07:25:17;101441.13;;;3.79;100.00
61908;BME280;47864;52.526;19.672;2022-11-06T07:27:19;101441.00;;;3.96;100.00
61908;BME280;47864;52.526;19.672;2022-11-06T07:29:21;101437.16;;;4.17;100.00
61908;BME280;47864;52.526;19.672;2022-11-06T07:31:23;101437.94;;;4.34;100.00
61908;BME280;47864;52.526;19.672;2022-11-06T07:33:24;101431.47;;;4.39;100.00
61908;BME280;47864;52.526;19.672;2022-11-06T07:35:27;101427.28;;;4.51;100.00
61908;BME280;47864;52.526;19.672;2022-11-06T07:37:29;101435.19;;;4.65;100.00
61908;BME280;47864;52.526;19.672;2022-11-06T07:39:30;101427.97;;;4.69;100.00
61908;BME280;47864;52.526;19.672;2022-11-06T07:41:32;101422.59;;;4.70;100.00
61908;BME280;47864;52.526;19.672;2022-11-06T07:43:34;101423.06;;;4.63;100.00
61908;BME280;47864;52.526;19.672;2022-11-06T07:45:37;101418.94;;;4.73;100.00
61908;BME280;47864;52.526;19.672;2022-11-06T07:47:39;101420.72;;;4.86;100.00
61908;BME280;47864;52.526;19.672;2022-11-06T07:49:41;101422.03;;;4.79;100.00
61908;BME280;47864;52.526;19.672;2022-11-06T07:51:50;101420.63;;;4.74;100.00
61908;BME280;47864;52.526;19.672;2022-11-06T07:53:52;101428.53;;;4.74;100.00
61908;BME280;47864;52.526;19.672;2022-11-06T07:55:56;101432.25;;;4.70;100.00
61908;BME280;47864;52.526;19.672;2022-11-06T07:57:58;101439.88;;;4.74;100.00
61908;BME280;47864;52.526;19.672;2022-11-06T08:00:00;101446.84;;;4.75;100.00
61908;BME280;47864;52.526;19.672;2022-11-06T08:02:01;101449.75;;;4.85;100.00
61908;BME280;47864;52.526;19.672;2022-11-06T08:04:03;101452.56;;;4.82;100.00
61908;BME280;47864;52.526;19.672;2022-11-06T08:06:05;101446.16;;;4.86;100.00
61908;BME280;47864;52.526;19.672;2022-11-06T08:08:07;101438.94;;;5.04;100.00
61908;BME280;47864;52.526;19.672;2022-11-06T08:10:09;101444.38;;;5.15;100.00
61908;BME280;47864;52.526;19.672;2022-11-06T08:12:11;101440.03;;;5.28;100.00
61908;BME280;47864;52.526;19.672;2022-11-06T08:14:13;101438.53;;;5.38;100.00
61908;BME280;47864;52.526;19.672;2022-11-06T08:16:14;101444.22;;;5.59;100.00
61908;BME280;47864;52.526;19.672;2022-11-06T08:18:16;101417.06;;;5.58;100.00
61908;BME280;47864;52.526;19.672;2022-11-06T08:20:18;101441.09;;;5.66;100.00
61908;BME280;47864;52.526;19.672;2022-11-06T08:22:20;101440.09;;;5.82;100.00
61908;BME280;47864;52.526;19.672;2022-11-06T08:24:22;101444.72;;;5.92;100.00
61908;BME280;47864;52.526;19.672;2022-11-06T08:26:24;101447.50;;;6.16;100.00
61908;BME280;47864;52.526;19.672;2022-11-06T08:28:26;101442.59;;;6.24;100.00
61908;BME280;47864;52.526;19.672;2022-11-06T08:30:29;101448.72;;;6.37;100.00
61908;BME280;47864;52.526;19.672;2022-11-06T08:32:31;101449.97;;;6.32;100.00
61908;BME280;47864;52.526;19.672;2022-11-06T08:34:34;101447.63;;;6.27;100.00
61908;BME280;47864;52.526;19.672;2022-11-06T08:36:38;101446.91;;;6.38;100.00
61908;BME280;47864;52.526;19.672;2022-11-06T08:38:46;101447.34;;;6.44;100.00
61908;BME280;47864;52.526;19.672;2022-11-06T08:40:48;101402.72;;;6.16;100.00
61908;BME280;47864;52.526;19.672;2022-11-06T08:43:03;101450.94;;;6.69;100.00
61908;BME280;47864;52.526;19.672;2022-11-06T08:45:06;101440.50;;;6.67;100.00
61908;BME280;47864;52.526;19.672;2022-11-06T08:47:08;101443.78;;;6.71;100.00
61908;BME280;47864;52.526;19.672;2022-11-06T08:49:10;101447.47;;;6.81;100.00
61908;BME280;47864;52.526;19.672;2022-11-06T08:51:11;101448.81;;;7.12;100.00
61908;BME280;47864;52.526;19.672;2022-11-06T08:53:13;101449.91;;;7.46;100.00
61908;BME280;47864;52.526;19.672;2022-11-06T08:55:20;101418.19;;;7.22;100.00
61908;BME280;47864;52.526;19.672;2022-11-06T08:57:22;101458.59;;;7.35;100.00
61908;BME280;47864;52.526;19.672;2022-11-06T08:59:24;101453.53;;;7.32;100.00
61908;BME280;47864;52.526;19.672;2022-11-06T09:01:26;101454.91;;;7.38;100.00
61908;BME280;47864;52.526;19.672;2022-11-06T09:03:28;101453.41;;;7.46;100.00
61908;BME280;47864;52.526;19.672;2022-11-06T09:05:30;101448.25;;;7.69;100.00
61908;BME280;47864;52.526;19.672;2022-11-06T09:07:31;101460.31;;;7.60;100.00
61908;BME280;47864;52.526;19.672;2022-11-06T09:09:33;101455.00;;;7.73;100.00
61908;BME280;47864;52.526;19.672;2022-11-06T09:11:35;101458.03;;;7.79;100.00
61908;BME280;47864;52.526;19.672;2022-11-06T09:13:37;101455.69;;;7.87;100.00
61908;BME280;47864;52.526;19.672;2022-11-06T09:15:39;101461.06;;;7.86;100.00
61908;BME280;47864;52.526;19.672;2022-11-06T09:17:45;101456.00;;;7.83;100.00
61908;BME280;47864;52.526;19.672;2022-11-06T09:19:47;101461.56;;;7.91;100.00
61908;BME280;47864;52.526;19.672;2022-11-06T09:21:48;101464.66;;;8.09;100.00
61908;BME280;47864;52.526;19.672;2022-11-06T09:23:55;101455.94;;;8.19;100.00
61908;BME280;47864;52.526;19.672;2022-11-06T09:25:57;101464.13;;;8.27;100.00
61908;BME280;47864;52.526;19.672;2022-11-06T09:27:59;101460.44;;;8.30;100.00
61908;BME280;47864;52.526;19.672;2022-11-06T09:30:01;101459.91;;;8.49;100.00
61908;BME280;47864;52.526;19.672;2022-11-06T09:32:03;101458.38;;;8.68;100.00
61908;BME280;47864;52.526;19.672;2022-11-06T09:34:05;101459.97;;;8.82;100.00
61908;BME280;47864;52.526;19.672;2022-11-06T09:36:07;101452.88;;;8.83;100.00
61908;BME280;47864;52.526;19.672;2022-11-06T09:38:10;101453.13;;;8.91;100.00
61908;BME280;47864;52.526;19.672;2022-11-06T09:40:38;101455.66;;;8.92;100.00
61908;BME280;47864;52.526;19.672;2022-11-06T09:42:55;101448.31;;;9.07;100.00
61908;BME280;47864;52.526;19.672;2022-11-06T09:45:10;101447.00;;;9.24;100.00
61908;BME280;47864;52.526;19.672;2022-11-06T09:47:18;101442.66;;;9.34;100.00
61908;BME280;47864;52.526;19.672;2022-11-06T09:49:31;101449.41;;;9.38;100.00
61908;BME280;47864;52.526;19.672;2022-11-06T09:51:40;101437.47;;;9.54;100.00
61908;BME280;47864;52.526;19.672;2022-11-06T09:56:03;101441.28;;;9.62;100.00
61908;BME280;47864;52.526;19.672;2022-11-06T09:58:16;101445.13;;;9.69;100.00
61908;BME280;47864;52.526;19.672;2022-11-06T10:00:20;101432.06;;;9.88;100.00
61908;BME280;47864;52.526;19.672;2022-11-06T10:02:32;101432.63;;;10.03;100.00
61908;BME280;47864;52.526;19.672;2022-11-06T10:07:27;101424.25;;;10.18;100.00
61908;BME280;47864;52.526;19.672;2022-11-06T10:09:30;101427.75;;;10.08;100.00
61908;BME280;47864;52.526;19.672;2022-11-06T10:11:57;101421.31;;;10.21;100.00
61908;BME280;47864;52.526;19.672;2022-11-06T10:20:24;101401.53;;;10.46;100.00
61908;BME280;47864;52.526;19.672;2022-11-06T10:24:50;101403.03;;;10.60;100.00
61908;BME280;47864;52.526;19.672;2022-11-06T10:26:57;101401.41;;;10.68;100.00
61908;BME280;47864;52.526;19.672;2022-11-06T10:32:04;101413.44;;;11.03;100.00
61908;BME280;47864;52.526;19.672;2022-11-06T10:34:19;101405.91;;;11.08;100.00
61908;BME280;47864;52.526;19.672;2022-11-06T10:36:45;101415.69;;;11.07;100.00
61908;BME280;47864;52.526;19.672;2022-11-06T10:38:51;101413.38;;;11.24;100.00
61908;BME280;47864;52.526;19.672;2022-11-06T10:40:55;101406.97;;;10.96;100.00
61908;BME280;47864;52.526;19.672;2022-11-06T10:45:26;101386.94;;;10.82;100.00
61908;BME280;47864;52.526;19.672;2022-11-06T10:47:33;101397.56;;;10.82;100.00
61908;BME280;47864;52.526;19.672;2022-11-06T10:49:52;101405.03;;;10.98;100.00
61908;BME280;47864;52.526;19.672;2022-11-06T10:56:24;101401.44;;;11.09;100.00
61908;BME280;47864;52.526;19.672;2022-11-06T10:58:30;101397.41;;;11.14;100.00
61908;BME280;47864;52.526;19.672;2022-11-06T11:00:33;101397.25;;;11.16;100.00
61908;BME280;47864;52.526;19.672;2022-11-06T11:02:39;101379.78;;;11.03;100.00
61908;BME280;47864;52.526;19.672;2022-11-06T11:04:41;101385.09;;;11.03;100.00
61908;BME280;47864;52.526;19.672;2022-11-06T11:06:43;101382.44;;;11.03;100.00
61908;BME280;47864;52.526;19.672;2022-11-06T11:08:47;101384.75;;;10.97;100.00
61908;BME280;47864;52.526;19.672;2022-11-06T11:10:49;101374.34;;;10.75;100.00
61908;BME280;47864;52.526;19.672;2022-11-06T11:13:05;101373.38;;;10.76;100.00
61908;BME280;47864;52.526;19.672;2022-11-06T11:15:13;101365.97;;;10.79;100.00
61908;BME280;47864;52.526;19.672;2022-11-06T11:17:18;101374.75;;;10.80;100.00
61908;BME280;47864;52.526;19.672;2022-11-06T11:19:31;101373.03;;;10.99;100.00
61908;BME280;47864;52.526;19.672;2022-11-06T11:21:33;101379.56;;;10.95;100.00
61908;BME280;47864;52.526;19.672;2022-11-06T11:23:35;101372.56;;;11.25;100.00
61908;BME280;47864;52.526;19.672;2022-11-06T11:25:37;101362.78;;;11.25;100.00
61908;BME280;47864;52.526;19.672;2022-11-06T11:27:43;101356.59;;;11.15;100.00
61908;BME280;47864;52.526;19.672;2022-11-06T11:29:48;101360.13;;;11.35;100.00
61908;BME280;47864;52.526;19.672;2022-11-06T11:31:52;101362.66;;;11.46;100.00
61908;BME280;47864;52.526;19.672;2022-11-06T11:33:57;101366.84;;;11.39;100.00
61908;BME280;47864;52.526;19.672;2022-11-06T11:36:01;101363.78;;;11.43;100.00
61908;BME280;47864;52.526;19.672;2022-11-06T11:38:10;101354.00;;;11.34;100.00
61908;BME280;47864;52.526;19.672;2022-11-06T11:40:40;101355.34;;;11.29;100.00
61908;BME280;47864;52.526;19.672;2022-11-06T11:42:42;101340.97;;;11.31;100.00
61908;BME280;47864;52.526;19.672;2022-11-06T11:44:44;101354.56;;;11.48;98.93
61908;BME280;47864;52.526;19.672;2022-11-06T11:46:53;101353.31;;;11.52;97.49
61908;BME280;47864;52.526;19.672;2022-11-06T11:48:57;101355.13;;;11.51;100.00
61908;BME280;47864;52.526;19.672;2022-11-06T11:51:11;101335.09;;;11.28;100.00
61908;BME280;47864;52.526;19.672;2022-11-06T11:53:18;101351.06;;;11.47;99.27